sensor_id;sensor_type;location;lat;lon;timestamp;P1;durP1;ratioP1;P2;durP2;ratioP2
75148;SDS011;63724;47.470;19.166;2023-04-24T00:01:32;8.75;;;4.57;;
75148;SDS011;63724;47.470;19.166;2023-04-24T00:04:36;9.27;;;4.50;;
75148;SDS011;63724;47.470;19.166;2023-04-24T00:07:42;7.13;;;4.90;;
75148;SDS011;63724;47.470;19.166;2023-04-24T00:10:45;7.90;;;4.47;;
75148;SDS011;63724;47.470;19.166;2023-04-24T00:13:48;6.28;;;4.28;;
75148;SDS011;63724;47.470;19.166;2023-04-24T00:16:50;7.65;;;4.70;;
75148;SDS011;63724;47.470;19.166;2023-04-24T00:19:53;5.30;;;4.13;;
75148;SDS011;63724;47.470;19.166;2023-04-24T00:23:00;12.13;;;4.30;;
75148;SDS011;63724;47.470;19.166;2023-04-24T00:26:03;9.50;;;4.60;;
75148;SDS011;63724;47.470;19.166;2023-04-24T00:29:05;10.85;;;4.68;;
75148;SDS011;63724;47.470;19.166;2023-04-24T00:32:07;9.82;;;5.00;;
75148;SDS011;63724;47.470;19.166;2023-04-24T00:35:10;11.45;;;4.60;;
75148;SDS011;63724;47.470;19.166;2023-04-24T00:38:13;7.40;;;4.43;;
75148;SDS011;63724;47.470;19.166;2023-04-24T00:41:16;7.00;;;4.60;;
75148;SDS011;63724;47.470;19.166;2023-04-24T00:44:18;8.73;;;5.32;;
75148;SDS011;63724;47.470;19.166;2023-04-24T00:47:21;6.75;;;4.95;;
75148;SDS011;63724;47.470;19.166;2023-04-24T00:50:24;10.05;;;4.90;;
75148;SDS011;63724;47.470;19.166;2023-04-24T00:53:27;8.00;;;4.70;;
75148;SDS011;63724;47.470;19.166;2023-04-24T00:56:29;7.87;;;4.80;;
75148;SDS011;63724;47.470;19.166;2023-04-24T00:59:32;9.10;;;4.70;;
75148;SDS011;63724;47.470;19.166;2023-04-24T01:02:34;6.50;;;4.68;;
75148;SDS011;63724;47.470;19.166;2023-04-24T01:05:37;10.20;;;5.32;;
75148;SDS011;63724;47.470;19.166;2023-04-24T01:08:40;8.73;;;4.93;;
75148;SDS011;63724;47.470;19.166;2023-04-24T01:11:43;12.17;;;4.87;;
75148;SDS011;63724;47.470;19.166;2023-04-24T01:14:46;11.38;;;4.60;;
75148;SDS011;63724;47.470;19.166;2023-04-24T01:17:50;6.43;;;5.00;;
75148;SDS011;63724;47.470;19.166;2023-04-24T01:20:53;9.55;;;5.43;;
75148;SDS011;63724;47.470;19.166;2023-04-24T01:23:58;7.00;;;5.10;;
75148;SDS011;63724;47.470;19.166;2023-04-24T01:27:00;10.37;;;5.50;;
75148;SDS011;63724;47.470;19.166;2023-04-24T01:30:03;13.15;;;5.38;;
75148;SDS011;63724;47.470;19.166;2023-04-24T01:33:06;7.75;;;4.55;;
75148;SDS011;63724;47.470;19.166;2023-04-24T01:36:09;9.35;;;5.72;;
75148;SDS011;63724;47.470;19.166;2023-04-24T01:39:13;10.70;;;5.37;;
75148;SDS011;63724;47.470;19.166;2023-04-24T01:42:15;8.03;;;5.30;;
75148;SDS011;63724;47.470;19.166;2023-04-24T01:45:18;9.43;;;5.07;;
75148;SDS011;63724;47.470;19.166;2023-04-24T01:48:20;9.95;;;5.70;;
75148;SDS011;63724;47.470;19.166;2023-04-24T01:51:22;8.57;;;5.28;;
75148;SDS011;63724;47.470;19.166;2023-04-24T01:54:25;8.63;;;5.30;;
75148;SDS011;63724;47.470;19.166;2023-04-24T01:57:27;11.20;;;4.93;;
75148;SDS011;63724;47.470;19.166;2023-04-24T02:00:32;11.35;;;5.15;;
75148;SDS011;63724;47.470;19.166;2023-04-24T02:03:34;9.70;;;5.40;;
75148;SDS011;63724;47.470;19.166;2023-04-24T02:06:37;7.05;;;5.63;;
75148;SDS011;63724;47.470;19.166;2023-04-24T02:09:39;16.27;;;6.30;;
75148;SDS011;63724;47.470;19.166;2023-04-24T02:12:42;11.60;;;5.73;;
75148;SDS011;63724;47.470;19.166;2023-04-24T02:15:44;8.00;;;5.63;;
75148;SDS011;63724;47.470;19.166;2023-04-24T02:18:46;10.43;;;6.05;;
75148;SDS011;63724;47.470;19.166;2023-04-24T02:21:49;10.18;;;6.18;;
75148;SDS011;63724;47.470;19.166;2023-04-24T02:24:51;10.27;;;6.10;;
75148;SDS011;63724;47.470;19.166;2023-04-24T02:27:53;8.40;;;5.90;;
75148;SDS011;63724;47.470;19.166;2023-04-24T02:30:56;10.63;;;6.30;;
75148;SDS011;63724;47.470;19.166;2023-04-24T02:33:58;9.13;;;6.30;;
75148;SDS011;63724;47.470;19.166;2023-04-24T02:37:00;10.68;;;6.53;;
75148;SDS011;63724;47.470;19.166;2023-04-24T02:40:03;11.83;;;6.40;;
75148;SDS011;63724;47.470;19.166;2023-04-24T02:43:07;10.73;;;5.80;;
75148;SDS011;63724;47.470;19.166;2023-04-24T02:46:10;11.30;;;6.70;;
75148;SDS011;63724;47.470;19.166;2023-04-24T02:49:12;8.38;;;6.25;;
75148;SDS011;63724;47.470;19.166;2023-04-24T02:52:15;10.70;;;6.53;;
75148;SDS011;63724;47.470;19.166;2023-04-24T02:55:19;10.67;;;6.43;;
75148;SDS011;63724;47.470;19.166;2023-04-24T02:58:21;10.83;;;6.03;;
75148;SDS011;63724;47.470;19.166;2023-04-24T03:01:24;15.43;;;5.93;;
75148;SDS011;63724;47.470;19.166;2023-04-24T03:04:26;10.30;;;6.68;;
75148;SDS011;63724;47.470;19.166;2023-04-24T03:07:29;9.90;;;5.97;;
75148;SDS011;63724;47.470;19.166;2023-04-24T03:10:33;11.73;;;6.90;;
75148;SDS011;63724;47.470;19.166;2023-04-24T03:13:36;13.27;;;7.57;;
75148;SDS011;63724;47.470;19.166;2023-04-24T03:16:38;10.35;;;7.78;;
75148;SDS011;63724;47.470;19.166;2023-04-24T03:19:41;9.18;;;6.45;;
75148;SDS011;63724;47.470;19.166;2023-04-24T03:22:45;7.30;;;6.38;;
75148;SDS011;63724;47.470;19.166;2023-04-24T03:25:48;11.03;;;6.87;;
75148;SDS011;63724;47.470;19.166;2023-04-24T03:28:51;10.80;;;7.00;;
75148;SDS011;63724;47.470;19.166;2023-04-24T03:31:53;10.50;;;7.13;;
75148;SDS011;63724;47.470;19.166;2023-04-24T03:34:56;12.10;;;7.75;;
75148;SDS011;63724;47.470;19.166;2023-04-24T03:37:59;10.27;;;7.30;;
75148;SDS011;63724;47.470;19.166;2023-04-24T03:41:29;12.00;;;7.17;;
75148;SDS011;63724;47.470;19.166;2023-04-24T03:44:52;10.13;;;7.00;;
75148;SDS011;63724;47.470;19.166;2023-04-24T03:47:57;11.38;;;7.28;;
75148;SDS011;63724;47.470;19.166;2023-04-24T03:51:00;9.82;;;6.93;;
75148;SDS011;63724;47.470;19.166;2023-04-24T03:54:04;11.07;;;7.35;;
75148;SDS011;63724;47.470;19.166;2023-04-24T03:57:10;13.00;;;7.70;;
75148;SDS011;63724;47.470;19.166;2023-04-24T04:00:19;9.40;;;7.10;;
75148;SDS011;63724;47.470;19.166;2023-04-24T04:03:30;21.45;;;11.35;;
75148;SDS011;63724;47.470;19.166;2023-04-24T04:06:33;16.08;;;8.35;;
75148;SDS011;63724;47.470;19.166;2023-04-24T04:09:36;31.02;;;19.98;;
75148;SDS011;63724;47.470;19.166;2023-04-24T04:12:38;9.77;;;7.23;;
75148;SDS011;63724;47.470;19.166;2023-04-24T04:15:41;7.77;;;6.47;;
75148;SDS011;63724;47.470;19.166;2023-04-24T04:18:43;10.60;;;6.88;;
75148;SDS011;63724;47.470;19.166;2023-04-24T04:21:46;11.18;;;6.55;;
75148;SDS011;63724;47.470;19.166;2023-04-24T04:25:14;9.18;;;6.47;;
75148;SDS011;63724;47.470;19.166;2023-04-24T04:28:17;10.30;;;6.60;;
75148;SDS011;63724;47.470;19.166;2023-04-24T04:31:22;10.90;;;6.37;;
75148;SDS011;63724;47.470;19.166;2023-04-24T04:34:26;8.80;;;6.47;;
75148;SDS011;63724;47.470;19.166;2023-04-24T04:37:29;12.73;;;7.03;;
75148;SDS011;63724;47.470;19.166;2023-04-24T04:40:50;10.50;;;6.00;;
75148;SDS011;63724;47.470;19.166;2023-04-24T04:43:54;12.10;;;6.53;;
75148;SDS011;63724;47.470;19.166;2023-04-24T04:46:56;10.73;;;6.17;;
75148;SDS011;63724;47.470;19.166;2023-04-24T04:50:05;10.77;;;6.78;;
75148;SDS011;63724;47.470;19.166;2023-04-24T04:53:08;10.10;;;6.93;;
75148;SDS011;63724;47.470;19.166;2023-04-24T04:56:12;11.25;;;7.50;;
75148;SDS011;63724;47.470;19.166;2023-04-24T04:59:17;11.23;;;7.73;;
75148;SDS011;63724;47.470;19.166;2023-04-24T05:02:20;15.10;;;7.50;;
75148;SDS011;63724;47.470;19.166;2023-04-24T05:05:23;10.55;;;7.03;;
75148;SDS011;63724;47.470;19.166;2023-04-24T05:08:28;12.13;;;7.03;;
75148;SDS011;63724;47.470;19.166;2023-04-24T05:11:30;9.80;;;6.75;;
75148;SDS011;63724;47.470;19.166;2023-04-24T05:14:35;14.27;;;8.03;;
75148;SDS011;63724;47.470;19.166;2023-04-24T05:17:38;22.67;;;8.13;;
75148;SDS011;63724;47.470;19.166;2023-04-24T05:20:42;14.45;;;6.75;;
75148;SDS011;63724;47.470;19.166;2023-04-24T05:23:45;11.00;;;7.38;;
75148;SDS011;63724;47.470;19.166;2023-04-24T05:26:54;16.83;;;6.97;;
75148;SDS011;63724;47.470;19.166;2023-04-24T05:30:02;13.33;;;8.07;;
75148;SDS011;63724;47.470;19.166;2023-04-24T05:33:05;17.53;;;7.73;;
75148;SDS011;63724;47.470;19.166;2023-04-24T05:36:09;13.55;;;6.90;;
75148;SDS011;63724;47.470;19.166;2023-04-24T05:39:12;7.60;;;6.57;;
75148;SDS011;63724;47.470;19.166;2023-04-24T05:42:14;9.90;;;6.95;;
75148;SDS011;63724;47.470;19.166;2023-04-24T05:45:16;11.27;;;7.03;;
75148;SDS011;63724;47.470;19.166;2023-04-24T05:48:19;8.67;;;6.40;;
75148;SDS011;63724;47.470;19.166;2023-04-24T05:51:24;10.13;;;6.43;;
75148;SDS011;63724;47.470;19.166;2023-04-24T05:54:26;10.95;;;6.57;;
75148;SDS011;63724;47.470;19.166;2023-04-24T05:57:30;11.63;;;6.55;;
75148;SDS011;63724;47.470;19.166;2023-04-24T06:00:36;10.37;;;6.60;;
75148;SDS011;63724;47.470;19.166;2023-04-24T06:03:42;9.97;;;7.23;;
75148;SDS011;63724;47.470;19.166;2023-04-24T06:06:44;7.70;;;6.63;;
75148;SDS011;63724;47.470;19.166;2023-04-24T06:09:47;18.88;;;6.95;;
75148;SDS011;63724;47.470;19.166;2023-04-24T06:12:49;8.93;;;7.45;;
75148;SDS011;63724;47.470;19.166;2023-04-24T06:15:53;14.03;;;8.40;;
75148;SDS011;63724;47.470;19.166;2023-04-24T06:19:04;24.83;;;6.37;;
75148;SDS011;63724;47.470;19.166;2023-04-24T06:22:06;13.63;;;6.60;;
75148;SDS011;63724;47.470;19.166;2023-04-24T06:25:11;13.18;;;7.28;;
75148;SDS011;63724;47.470;19.166;2023-04-24T06:28:14;9.95;;;6.68;;
75148;SDS011;63724;47.470;19.166;2023-04-24T06:31:16;14.87;;;6.97;;
75148;SDS011;63724;47.470;19.166;2023-04-24T06:34:19;9.67;;;6.70;;
75148;SDS011;63724;47.470;19.166;2023-04-24T06:41:27;10.80;;;6.63;;
75148;SDS011;63724;47.470;19.166;2023-04-24T06:44:54;11.30;;;6.18;;
75148;SDS011;63724;47.470;19.166;2023-04-24T06:47:56;9.23;;;6.40;;
75148;SDS011;63724;47.470;19.166;2023-04-24T06:50:58;7.57;;;4.93;;
75148;SDS011;63724;47.470;19.166;2023-04-24T06:54:01;10.23;;;5.82;;
75148;SDS011;63724;47.470;19.166;2023-04-24T06:57:03;10.18;;;6.55;;
75148;SDS011;63724;47.470;19.166;2023-04-24T07:00:08;8.93;;;6.47;;
75148;SDS011;63724;47.470;19.166;2023-04-24T07:03:11;9.53;;;7.30;;
75148;SDS011;63724;47.470;19.166;2023-04-24T07:06:13;9.33;;;5.73;;
75148;SDS011;63724;47.470;19.166;2023-04-24T07:09:18;10.20;;;6.10;;
75148;SDS011;63724;47.470;19.166;2023-04-24T07:12:20;12.68;;;6.85;;
75148;SDS011;63724;47.470;19.166;2023-04-24T07:15:26;11.88;;;6.97;;
75148;SDS011;63724;47.470;19.166;2023-04-24T07:18:28;9.30;;;6.53;;
75148;SDS011;63724;47.470;19.166;2023-04-24T07:21:33;12.30;;;7.47;;
75148;SDS011;63724;47.470;19.166;2023-04-24T07:24:35;9.95;;;7.18;;
75148;SDS011;63724;47.470;19.166;2023-04-24T07:27:38;12.70;;;7.50;;
75148;SDS011;63724;47.470;19.166;2023-04-24T07:30:40;15.50;;;8.07;;
75148;SDS011;63724;47.470;19.166;2023-04-24T07:33:42;10.27;;;7.10;;
75148;SDS011;63724;47.470;19.166;2023-04-24T07:36:45;9.80;;;6.20;;
75148;SDS011;63724;47.470;19.166;2023-04-24T07:39:48;8.38;;;7.05;;
75148;SDS011;63724;47.470;19.166;2023-04-24T07:42:50;10.30;;;6.93;;
75148;SDS011;63724;47.470;19.166;2023-04-24T07:45:52;9.43;;;6.38;;
75148;SDS011;63724;47.470;19.166;2023-04-24T07:48:55;12.20;;;7.70;;
75148;SDS011;63724;47.470;19.166;2023-04-24T07:52:13;12.77;;;7.83;;
75148;SDS011;63724;47.470;19.166;2023-04-24T07:55:15;11.52;;;7.43;;
75148;SDS011;63724;47.470;19.166;2023-04-24T07:58:18;12.55;;;8.75;;
75148;SDS011;63724;47.470;19.166;2023-04-24T08:01:20;10.10;;;7.55;;
75148;SDS011;63724;47.470;19.166;2023-04-24T08:04:23;8.27;;;7.30;;
75148;SDS011;63724;47.470;19.166;2023-04-24T08:07:26;12.37;;;8.17;;
75148;SDS011;63724;47.470;19.166;2023-04-24T08:10:28;15.57;;;8.63;;
75148;SDS011;63724;47.470;19.166;2023-04-24T08:13:30;13.93;;;7.70;;
75148;SDS011;63724;47.470;19.166;2023-04-24T08:16:34;13.85;;;8.30;;
75148;SDS011;63724;47.470;19.166;2023-04-24T08:19:37;10.00;;;7.73;;
75148;SDS011;63724;47.470;19.166;2023-04-24T08:22:40;20.30;;;9.37;;
75148;SDS011;63724;47.470;19.166;2023-04-24T08:25:42;12.88;;;7.10;;
75148;SDS011;63724;47.470;19.166;2023-04-24T08:28:45;8.55;;;6.80;;
75148;SDS011;63724;47.470;19.166;2023-04-24T08:31:47;13.65;;;7.40;;
75148;SDS011;63724;47.470;19.166;2023-04-24T08:34:50;11.37;;;6.63;;
75148;SDS011;63724;47.470;19.166;2023-04-24T08:37:54;13.30;;;7.10;;
75148;SDS011;63724;47.470;19.166;2023-04-24T08:41:00;12.05;;;7.15;;
75148;SDS011;63724;47.470;19.166;2023-04-24T08:44:03;10.10;;;7.25;;
75148;SDS011;63724;47.470;19.166;2023-04-24T08:47:06;9.13;;;7.38;;
75148;SDS011;63724;47.470;19.166;2023-04-24T08:50:10;13.17;;;7.20;;
75148;SDS011;63724;47.470;19.166;2023-04-24T08:53:12;10.30;;;7.33;;
75148;SDS011;63724;47.470;19.166;2023-04-24T08:56:15;7.90;;;6.15;;
75148;SDS011;63724;47.470;19.166;2023-04-24T08:59:18;6.95;;;5.63;;
75148;SDS011;63724;47.470;19.166;2023-04-24T09:02:20;6.57;;;5.45;;
75148;SDS011;63724;47.470;19.166;2023-04-24T09:05:23;7.57;;;5.23;;
75148;SDS011;63724;47.470;19.166;2023-04-24T09:08:29;9.70;;;5.33;;
75148;SDS011;63724;47.470;19.166;2023-04-24T09:11:32;6.75;;;4.32;;
75148;SDS011;63724;47.470;19.166;2023-04-24T09:14:37;5.75;;;3.88;;
75148;SDS011;63724;47.470;19.166;2023-04-24T09:17:44;6.40;;;4.15;;
75148;SDS011;63724;47.470;19.166;2023-04-24T09:24:14;6.13;;;4.30;;
75148;SDS011;63724;47.470;19.166;2023-04-24T09:27:19;9.35;;;5.20;;
75148;SDS011;63724;47.470;19.166;2023-04-24T09:30:25;5.15;;;4.05;;
75148;SDS011;63724;47.470;19.166;2023-04-24T09:33:27;6.07;;;4.05;;
75148;SDS011;63724;47.470;19.166;2023-04-24T09:36:34;9.07;;;4.43;;
75148;SDS011;63724;47.470;19.166;2023-04-24T09:39:40;9.30;;;4.67;;
75148;SDS011;63724;47.470;19.166;2023-04-24T09:42:43;9.63;;;4.82;;
75148;SDS011;63724;47.470;19.166;2023-04-24T09:45:47;8.73;;;4.78;;
75148;SDS011;63724;47.470;19.166;2023-04-24T09:48:49;8.82;;;4.75;;
75148;SDS011;63724;47.470;19.166;2023-04-24T09:52:13;7.33;;;4.60;;
75148;SDS011;63724;47.470;19.166;2023-04-24T09:55:19;5.53;;;4.20;;
75148;SDS011;63724;47.470;19.166;2023-04-24T09:58:25;8.55;;;4.75;;
75148;SDS011;63724;47.470;19.166;2023-04-24T10:01:29;11.32;;;4.60;;
75148;SDS011;63724;47.470;19.166;2023-04-24T10:04:35;7.05;;;4.68;;
75148;SDS011;63724;47.470;19.166;2023-04-24T10:07:37;5.37;;;4.17;;
75148;SDS011;63724;47.470;19.166;2023-04-24T10:10:44;29.97;;;5.80;;
75148;SDS011;63724;47.470;19.166;2023-04-24T10:13:47;9.80;;;4.38;;
75148;SDS011;63724;47.470;19.166;2023-04-24T10:16:52;24.38;;;5.65;;
75148;SDS011;63724;47.470;19.166;2023-04-24T10:19:55;23.05;;;5.50;;
75148;SDS011;63724;47.470;19.166;2023-04-24T10:22:59;16.40;;;4.73;;
75148;SDS011;63724;47.470;19.166;2023-04-24T10:26:02;7.30;;;4.00;;
75148;SDS011;63724;47.470;19.166;2023-04-24T10:29:05;6.45;;;4.35;;
75148;SDS011;63724;47.470;19.166;2023-04-24T10:32:14;7.38;;;4.38;;
75148;SDS011;63724;47.470;19.166;2023-04-24T10:35:17;8.38;;;4.75;;
75148;SDS011;63724;47.470;19.166;2023-04-24T10:38:22;12.17;;;3.77;;
75148;SDS011;63724;47.470;19.166;2023-04-24T10:41:26;6.30;;;4.43;;
75148;SDS011;63724;47.470;19.166;2023-04-24T10:44:35;6.00;;;3.95;;
75148;SDS011;63724;47.470;19.166;2023-04-24T10:47:41;6.75;;;4.70;;
75148;SDS011;63724;47.470;19.166;2023-04-24T10:50:46;5.57;;;4.40;;
75148;SDS011;63724;47.470;19.166;2023-04-24T10:53:55;6.80;;;4.40;;
75148;SDS011;63724;47.470;19.166;2023-04-24T11:00:26;8.65;;;5.40;;
75148;SDS011;63724;47.470;19.166;2023-04-24T11:03:30;10.07;;;5.07;;
75148;SDS011;63724;47.470;19.166;2023-04-24T11:06:35;9.52;;;5.20;;
75148;SDS011;63724;47.470;19.166;2023-04-24T11:09:39;7.43;;;4.90;;
75148;SDS011;63724;47.470;19.166;2023-04-24T11:12:45;7.60;;;4.80;;
75148;SDS011;63724;47.470;19.166;2023-04-24T11:19:27;8.00;;;5.55;;
75148;SDS011;63724;47.470;19.166;2023-04-24T11:22:32;8.90;;;5.43;;
75148;SDS011;63724;47.470;19.166;2023-04-24T11:25:36;7.37;;;4.80;;
75148;SDS011;63724;47.470;19.166;2023-04-24T11:28:48;13.37;;;5.20;;
75148;SDS011;63724;47.470;19.166;2023-04-24T11:31:51;8.07;;;5.38;;
75148;SDS011;63724;47.470;19.166;2023-04-24T11:34:57;9.43;;;5.70;;
75148;SDS011;63724;47.470;19.166;2023-04-24T11:38:05;9.20;;;5.53;;
75148;SDS011;63724;47.470;19.166;2023-04-24T11:41:11;6.77;;;5.17;;
75148;SDS011;63724;47.470;19.166;2023-04-24T11:44:15;10.87;;;6.43;;
75148;SDS011;63724;47.470;19.166;2023-04-24T11:47:28;11.60;;;6.38;;
75148;SDS011;63724;47.470;19.166;2023-04-24T11:50:32;9.57;;;6.05;;
75148;SDS011;63724;47.470;19.166;2023-04-24T11:53:35;11.80;;;5.95;;
75148;SDS011;63724;47.470;19.166;2023-04-24T11:56:38;14.00;;;6.40;;
75148;SDS011;63724;47.470;19.166;2023-04-24T11:59:41;16.03;;;6.93;;
75148;SDS011;63724;47.470;19.166;2023-04-24T12:06:19;12.23;;;6.75;;
75148;SDS011;63724;47.470;19.166;2023-04-24T12:09:21;11.13;;;6.40;;
75148;SDS011;63724;47.470;19.166;2023-04-24T12:12:25;8.97;;;6.03;;
75148;SDS011;63724;47.470;19.166;2023-04-24T12:15:30;9.67;;;5.83;;
75148;SDS011;63724;47.470;19.166;2023-04-24T12:18:33;6.07;;;4.80;;
75148;SDS011;63724;47.470;19.166;2023-04-24T12:22:06;12.23;;;3.78;;
75148;SDS011;63724;47.470;19.166;2023-04-24T12:25:09;5.70;;;2.72;;
75148;SDS011;63724;47.470;19.166;2023-04-24T12:28:12;5.57;;;3.03;;
75148;SDS011;63724;47.470;19.166;2023-04-24T12:31:15;4.77;;;2.93;;
75148;SDS011;63724;47.470;19.166;2023-04-24T12:34:22;6.30;;;3.88;;
75148;SDS011;63724;47.470;19.166;2023-04-24T12:37:32;9.68;;;5.40;;
75148;SDS011;63724;47.470;19.166;2023-04-24T12:40:35;10.52;;;4.43;;
75148;SDS011;63724;47.470;19.166;2023-04-24T12:43:37;7.97;;;5.10;;
75148;SDS011;63724;47.470;19.166;2023-04-24T12:46:42;8.37;;;5.23;;
75148;SDS011;63724;47.470;19.166;2023-04-24T12:49:48;8.50;;;5.13;;
75148;SDS011;63724;47.470;19.166;2023-04-24T12:52:52;5.28;;;4.10;;
75148;SDS011;63724;47.470;19.166;2023-04-24T12:55:55;11.20;;;4.20;;
75148;SDS011;63724;47.470;19.166;2023-04-24T12:58:58;6.63;;;3.60;;
75148;SDS011;63724;47.470;19.166;2023-04-24T13:02:00;5.27;;;3.57;;
75148;SDS011;63724;47.470;19.166;2023-04-24T13:05:03;4.78;;;3.17;;
75148;SDS011;63724;47.470;19.166;2023-04-24T13:08:06;3.65;;;2.67;;
75148;SDS011;63724;47.470;19.166;2023-04-24T13:11:08;6.72;;;3.15;;
75148;SDS011;63724;47.470;19.166;2023-04-24T13:14:11;6.30;;;2.90;;
75148;SDS011;63724;47.470;19.166;2023-04-24T13:17:13;5.50;;;2.60;;
75148;SDS011;63724;47.470;19.166;2023-04-24T13:20:17;3.38;;;2.35;;
75148;SDS011;63724;47.470;19.166;2023-04-24T13:23:19;10.45;;;3.05;;
75148;SDS011;63724;47.470;19.166;2023-04-24T13:26:22;6.40;;;2.88;;
75148;SDS011;63724;47.470;19.166;2023-04-24T13:29:24;11.20;;;2.63;;
75148;SDS011;63724;47.470;19.166;2023-04-24T13:32:27;6.97;;;3.03;;
75148;SDS011;63724;47.470;19.166;2023-04-24T13:35:30;5.90;;;2.15;;
75148;SDS011;63724;47.470;19.166;2023-04-24T13:38:33;6.25;;;2.67;;
75148;SDS011;63724;47.470;19.166;2023-04-24T13:41:36;10.18;;;2.38;;
75148;SDS011;63724;47.470;19.166;2023-04-24T13:44:38;3.93;;;2.10;;
75148;SDS011;63724;47.470;19.166;2023-04-24T13:47:41;6.53;;;2.37;;
75148;SDS011;63724;47.470;19.166;2023-04-24T13:50:43;6.95;;;3.38;;
75148;SDS011;63724;47.470;19.166;2023-04-24T13:53:46;4.03;;;2.33;;
75148;SDS011;63724;47.470;19.166;2023-04-24T13:56:49;6.47;;;2.92;;
75148;SDS011;63724;47.470;19.166;2023-04-24T13:59:52;10.13;;;3.30;;
75148;SDS011;63724;47.470;19.166;2023-04-24T14:02:57;6.80;;;3.77;;
75148;SDS011;63724;47.470;19.166;2023-04-24T14:06:19;5.93;;;3.50;;
75148;SDS011;63724;47.470;19.166;2023-04-24T14:09:27;6.35;;;2.92;;
75148;SDS011;63724;47.470;19.166;2023-04-24T14:12:29;4.70;;;3.30;;
75148;SDS011;63724;47.470;19.166;2023-04-24T14:15:31;5.33;;;2.73;;
75148;SDS011;63724;47.470;19.166;2023-04-24T14:18:35;9.10;;;3.10;;
75148;SDS011;63724;47.470;19.166;2023-04-24T14:21:38;5.63;;;3.10;;
75148;SDS011;63724;47.470;19.166;2023-04-24T14:24:41;3.42;;;2.60;;
75148;SDS011;63724;47.470;19.166;2023-04-24T14:27:43;7.75;;;3.00;;
75148;SDS011;63724;47.470;19.166;2023-04-24T14:30:46;9.37;;;3.10;;
75148;SDS011;63724;47.470;19.166;2023-04-24T14:34:15;10.20;;;3.43;;
75148;SDS011;63724;47.470;19.166;2023-04-24T14:37:20;3.45;;;2.65;;
75148;SDS011;63724;47.470;19.166;2023-04-24T14:40:22;5.95;;;3.38;;
75148;SDS011;63724;47.470;19.166;2023-04-24T14:43:45;4.95;;;3.10;;
75148;SDS011;63724;47.470;19.166;2023-04-24T14:46:48;8.43;;;3.63;;
75148;SDS011;63724;47.470;19.166;2023-04-24T14:49:51;5.10;;;3.20;;
75148;SDS011;63724;47.470;19.166;2023-04-24T14:52:54;5.90;;;3.67;;
75148;SDS011;63724;47.470;19.166;2023-04-24T14:55:59;7.07;;;3.38;;
75148;SDS011;63724;47.470;19.166;2023-04-24T14:59:02;8.15;;;3.90;;
75148;SDS011;63724;47.470;19.166;2023-04-24T15:02:07;10.33;;;4.40;;
75148;SDS011;63724;47.470;19.166;2023-04-24T15:05:15;7.93;;;4.00;;
75148;SDS011;63724;47.470;19.166;2023-04-24T15:08:18;7.57;;;4.47;;
75148;SDS011;63724;47.470;19.166;2023-04-24T15:11:20;7.13;;;4.53;;
75148;SDS011;63724;47.470;19.166;2023-04-24T15:14:23;14.07;;;4.45;;
75148;SDS011;63724;47.470;19.166;2023-04-24T15:17:25;10.17;;;4.97;;
75148;SDS011;63724;47.470;19.166;2023-04-24T15:20:28;15.13;;;4.90;;
75148;SDS011;63724;47.470;19.166;2023-04-24T15:23:30;9.10;;;5.15;;
75148;SDS011;63724;47.470;19.166;2023-04-24T15:26:33;12.75;;;5.38;;
75148;SDS011;63724;47.470;19.166;2023-04-24T15:29:35;15.80;;;6.45;;
75148;SDS011;63724;47.470;19.166;2023-04-24T15:32:38;18.03;;;7.37;;
75148;SDS011;63724;47.470;19.166;2023-04-24T15:35:40;19.97;;;7.50;;
75148;SDS011;63724;47.470;19.166;2023-04-24T15:38:43;13.40;;;6.93;;
75148;SDS011;63724;47.470;19.166;2023-04-24T15:41:46;11.07;;;6.47;;
75148;SDS011;63724;47.470;19.166;2023-04-24T15:44:48;9.25;;;5.93;;
75148;SDS011;63724;47.470;19.166;2023-04-24T15:47:51;6.73;;;4.20;;
75148;SDS011;63724;47.470;19.166;2023-04-24T15:50:53;4.87;;;3.77;;
75148;SDS011;63724;47.470;19.166;2023-04-24T15:53:56;6.90;;;4.22;;
75148;SDS011;63724;47.470;19.166;2023-04-24T15:56:58;5.45;;;3.88;;
75148;SDS011;63724;47.470;19.166;2023-04-24T16:00:02;6.50;;;3.97;;
75148;SDS011;63724;47.470;19.166;2023-04-24T16:03:12;8.60;;;4.30;;
75148;SDS011;63724;47.470;19.166;2023-04-24T16:06:15;6.57;;;4.70;;
75148;SDS011;63724;47.470;19.166;2023-04-24T16:09:17;6.60;;;4.65;;
75148;SDS011;63724;47.470;19.166;2023-04-24T16:12:19;7.82;;;4.90;;
75148;SDS011;63724;47.470;19.166;2023-04-24T16:15:22;9.35;;;4.97;;
75148;SDS011;63724;47.470;19.166;2023-04-24T16:18:24;9.60;;;5.10;;
75148;SDS011;63724;47.470;19.166;2023-04-24T16:21:27;8.60;;;4.73;;
75148;SDS011;63724;47.470;19.166;2023-04-24T16:24:29;34.22;;;14.38;;
75148;SDS011;63724;47.470;19.166;2023-04-24T16:27:32;8.77;;;5.10;;
75148;SDS011;63724;47.470;19.166;2023-04-24T16:30:34;7.72;;;4.95;;
75148;SDS011;63724;47.470;19.166;2023-04-24T16:33:37;8.17;;;4.83;;
75148;SDS011;63724;47.470;19.166;2023-04-24T16:36:41;11.00;;;5.30;;
75148;SDS011;63724;47.470;19.166;2023-04-24T16:39:43;7.97;;;5.43;;
75148;SDS011;63724;47.470;19.166;2023-04-24T16:42:46;7.72;;;5.68;;
75148;SDS011;63724;47.470;19.166;2023-04-24T16:45:51;10.52;;;5.38;;
75148;SDS011;63724;47.470;19.166;2023-04-24T16:49:03;9.73;;;5.30;;
75148;SDS011;63724;47.470;19.166;2023-04-24T16:52:08;8.40;;;5.57;;
75148;SDS011;63724;47.470;19.166;2023-04-24T16:55:29;8.40;;;5.97;;
75148;SDS011;63724;47.470;19.166;2023-04-24T17:03:11;8.23;;;5.95;;
75148;SDS011;63724;47.470;19.166;2023-04-24T17:06:14;8.93;;;6.30;;
75148;SDS011;63724;47.470;19.166;2023-04-24T17:09:24;9.43;;;5.70;;
75148;SDS011;63724;47.470;19.166;2023-04-24T17:12:27;6.45;;;5.82;;
75148;SDS011;63724;47.470;19.166;2023-04-24T17:15:31;7.35;;;5.65;;
75148;SDS011;63724;47.470;19.166;2023-04-24T17:18:33;7.13;;;5.20;;
75148;SDS011;63724;47.470;19.166;2023-04-24T17:21:36;6.13;;;5.53;;
75148;SDS011;63724;47.470;19.166;2023-04-24T17:24:38;6.97;;;5.27;;
75148;SDS011;63724;47.470;19.166;2023-04-24T17:27:41;8.05;;;5.68;;
75148;SDS011;63724;47.470;19.166;2023-04-24T17:30:50;7.00;;;5.15;;
75148;SDS011;63724;47.470;19.166;2023-04-24T17:34:13;6.18;;;5.38;;
75148;SDS011;63724;47.470;19.166;2023-04-24T17:37:46;8.97;;;5.30;;
75148;SDS011;63724;47.470;19.166;2023-04-24T17:41:10;7.23;;;5.40;;
75148;SDS011;63724;47.470;19.166;2023-04-24T17:44:45;6.05;;;5.20;;
75148;SDS011;63724;47.470;19.166;2023-04-24T17:48:44;6.18;;;5.20;;
75148;SDS011;63724;47.470;19.166;2023-04-24T17:52:16;6.85;;;5.22;;
75148;SDS011;63724;47.470;19.166;2023-04-24T17:55:21;6.50;;;5.10;;
75148;SDS011;63724;47.470;19.166;2023-04-24T17:58:24;6.33;;;5.30;;
75148;SDS011;63724;47.470;19.166;2023-04-24T18:01:29;6.35;;;4.70;;
75148;SDS011;63724;47.470;19.166;2023-04-24T18:04:32;6.80;;;4.60;;
75148;SDS011;63724;47.470;19.166;2023-04-24T18:07:35;6.45;;;5.05;;
75148;SDS011;63724;47.470;19.166;2023-04-24T18:10:40;7.17;;;5.80;;
75148;SDS011;63724;47.470;19.166;2023-04-24T18:13:45;5.47;;;4.67;;
75148;SDS011;63724;47.470;19.166;2023-04-24T18:16:53;4.63;;;4.22;;
75148;SDS011;63724;47.470;19.166;2023-04-24T18:19:58;6.47;;;4.25;;
75148;SDS011;63724;47.470;19.166;2023-04-24T18:23:01;4.65;;;3.88;;
75148;SDS011;63724;47.470;19.166;2023-04-24T18:26:04;7.30;;;4.13;;
75148;SDS011;63724;47.470;19.166;2023-04-24T18:29:06;4.67;;;4.10;;
75148;SDS011;63724;47.470;19.166;2023-04-24T18:32:09;4.38;;;3.97;;